This is the latest recevied weather packets stored in our database for station/object DL6DJ-15. If no packets are shown the sender has not sent any weather packets the latest 10 day(s).
| Time | Temp. | Humidity | Pressure | Rain* | Wind** | Luminosity | Snow |
|---|---|---|---|---|---|---|---|
| 1777659229 | 13.89° C | 48% | 1026.2 hPa | - | - | - | - |
| 1777658929 | 14.44° C | 46% | 1026.2 hPa | - | - | - | - |
| 1777658628 | 15.56° C | 44% | 1026.1 hPa | - | - | - | - |
| 1777658328 | 16.11° C | 42% | 1026.1 hPa | - | - | - | - |
| 1777658028 | 17.22° C | 38% | 1026.1 hPa | - | - | - | - |
| 1777657127 | 18.89° C | 30% | 1026.1 hPa | - | - | - | - |
| 1777656226 | 19.44° C | 29% | 1026 hPa | - | - | - | - |
| 1777655624 | 19.44° C | 29% | 1026 hPa | - | - | - | - |
| 1777655024 | 19.44° C | 28% | 1026.1 hPa | - | - | - | - |
| 1777654723 | 19.44° C | 27% | 1026.2 hPa | - | - | - | - |
| 1777653822 | 19.44° C | 27% | 1026.3 hPa | - | - | - | - |
| 1777653522 | 19.44° C | 27% | 1026.4 hPa | - | - | - | - |
| 1777653221 | 19.44° C | 29% | 1026.3 hPa | - | - | - | - |
| 1777652921 | 19.44° C | 28% | 1026.5 hPa | - | - | - | - |
| 1777652621 | 19.44° C | 28% | 1026.6 hPa | - | - | - | - |
| 1777652321 | 19.44° C | 27% | 1026.5 hPa | - | - | - | - |
| 1777652020 | 19.44° C | 28% | 1026.6 hPa | - | - | - | - |
| 1777649917 | 20° C | 26% | 1026.6 hPa | - | - | - | - |
| 1777649617 | 20° C | 26% | 1026.7 hPa | - | - | - | - |
| 1777649316 | 20° C | 26% | 1026.9 hPa | - | - | - | - |
| 1777649016 | 20° C | 26% | 1026.9 hPa | - | - | - | - |
| 1777648715 | 20° C | 27% | 1026.9 hPa | - | - | - | - |
| 1777648415 | 20° C | 25% | 1027 hPa | - | - | - | - |
| 1777648114 | 20° C | 27% | 1027.1 hPa | - | - | - | - |
| 1777647814 | 20° C | 28% | 1027.1 hPa | - | - | - | - |
* Rain since midnight (hover to see other rain measurements)
** Current wind speed in m/s (hover to see current wind gust speed)